Time;durP1;ratioP1;P1;durP2;ratioP2;P2;SDS_P1;SDS_P2;PMS_P1;PMS_P2;Temp;Humidity;BMP_temperature;BMP_pressure;BME280_temperature;BME280_humidity;BME280_pressure;Samples;Min_cycle;Max_cycle;Signal;HPM_P1;HPM_P2
2023/02/04 00:02:24;;;;;;;;;;;;;;;;;;5029708;28;19917;-83
2023/02/04 00:04:49;;;;;;;;;;;;;;;;;;5033406;28;19931;-83
2023/02/04 00:07:17;;;;;;;;;;;;;;;;;;5031357;28;20267;-83
2023/02/04 00:09:42;;;;;;;;;;;;;;;5.23;100.00;67350.81;5031836;28;19924;-83
2023/02/04 00:12:09;;;;;;;;;;;;;;;5.24;100.00;67351.94;5033005;28;19917;-83
2023/02/04 00:14:34;;;;;;;;;;;;;;;5.26;100.00;67351.56;5032142;28;20390;-83
2023/02/04 00:17:00;;;;;;;;;;;;;;;;;;5013869;28;19925;-83
2023/02/04 00:19:25;;;;;;;;;;;;;;;;;;5030790;28;20297;-83
2023/02/04 00:21:50;;;;;;;;;;;;;;;;;;5026375;28;20387;-83
2023/02/04 00:24:15;;;;;;;;;;;;;;;;;;5028123;28;19963;-83
2023/02/04 00:26:40;;;;;;;;;;;;;;;;;;5000214;28;19917;-83
2023/02/04 00:29:05;;;;;;;;;;;;;;;;;;5032299;28;20004;-83
2023/02/04 00:31:30;;;;;;;;;;;;;;;5.31;100.00;67360.41;5030113;28;19940;-83
2023/02/04 00:33:56;;;;;;;;;;;;;;;5.31;100.00;67360.41;5031147;28;19921;-83
2023/02/04 00:36:21;;;;;;;;;;;;;;;;;;5030072;28;19925;-83
2023/02/04 00:38:46;;;;;;;;;;;;;;;;;;5031890;28;19928;-83
2023/02/04 00:41:11;;;;;;;;;;;;;;;5.33;100.00;67362.13;5018501;28;19925;-82
2023/02/04 00:43:36;;;;;;;;;;;;;;;5.35;100.00;67364.34;5029119;28;19921;-83
2023/02/04 00:46:02;;;;;;;;;;;;;;;;;;5018818;28;19932;-83
2023/02/04 00:48:27;;;;;;;;;;;;;;;;;;5030810;28;19924;-82
2023/02/04 00:50:53;;;;;;;;;;;;;;;5.32;100.00;67366.25;5016952;28;20009;-82
2023/02/04 00:53:18;;;;;;;;;;;;;;;5.33;100.00;67362.13;5031312;28;20345;-82
2023/02/04 00:55:43;;;;;;;;;;;;;;;5.33;100.00;67362.13;5028863;28;19922;-82
2023/02/04 00:58:09;;;;;;;;;;;;;;;5.33;100.00;67367.41;5012647;28;19921;-82
2023/02/04 01:00:34;;;;;;;;;;;;;;;5.33;100.00;67362.13;5012697;28;19921;-82
2023/02/04 01:02:59;;;;;;;;;;;;;;;;;;5030928;28;19921;-83
2023/02/04 01:05:24;;;;;;;;;;;;;;;5.35;100.00;67364.94;5013290;28;19971;-83
2023/02/04 01:07:49;;;;;;;;;;;;;;;;;;5026858;28;19963;-83
2023/02/04 01:10:16;;;;;;;;;;;;;;;5.33;100.00;67362.13;5020887;28;20383;-83
2023/02/04 01:12:41;;;;;;;;;;;;;;;5.33;100.00;67367.41;5022887;28;20607;-83
2023/02/04 01:15:07;;;;;;;;;;;;;;;;;;5026669;28;19921;-83
2023/02/04 01:17:32;;;;;;;;;;;;;;;5.33;100.00;67367.41;5025246;28;19976;-83
2023/02/04 01:19:57;;;;;;;;;;;;;;;5.33;100.00;67362.13;5029958;28;19970;-83
2023/02/04 01:22:22;;;;;;;;;;;;;;;5.34;100.00;67363.81;5030065;28;20027;-83
2023/02/04 01:24:49;;;;;;;;;;;;;;;;;;5029407;28;19924;-83
2023/02/04 01:27:14;;;;;;;;;;;;;;;;;;5028910;28;19996;-83
2023/02/04 01:29:39;;;;;;;;;;;;;;;5.35;100.00;67364.34;5030249;28;19979;-83
2023/02/04 01:32:05;;;;;;;;;;;;;;;5.32;100.00;67361.56;5029314;28;19923;-83
2023/02/04 01:34:30;;;;;;;;;;;;;;;;;;5029117;28;20370;-83
2023/02/04 01:36:55;;;;;;;;;;;;;;;;;;5029894;28;19917;-83
2023/02/04 01:39:20;;;;;;;;;;;;;;;5.35;100.00;67364.94;5011822;28;20345;-82
2023/02/04 01:41:45;;;;;;;;;;;;;;;;;;5029154;28;20783;-82
2023/02/04 01:44:11;;;;;;;;;;;;;;;;;;5010978;28;19921;-83
2023/02/04 01:46:36;;;;;;;;;;;;;;;5.31;100.00;67359.84;5028339;28;19960;-82
2023/02/04 01:49:01;;;;;;;;;;;;;;;;;;5011764;28;19936;-83
2023/02/04 01:51:29;;;;;;;;;;;;;;;5.32;100.00;67366.25;5006492;28;20000;-83
2023/02/04 01:53:54;;;;;;;;;;;;;;;5.31;100.00;67357.78;5028255;28;20370;-83
2023/02/04 01:56:20;;;;;;;;;;;;;;;;;;5016731;28;19921;-83
2023/02/04 01:58:45;;;;;;;;;;;;;;;;;;5029226;28;19917;-83
2023/02/04 02:01:10;;;;;;;;;;;;;;;;;;5029017;28;20301;-83
2023/02/04 02:03:35;;;;;;;;;;;;;;;5.31;100.00;67359.84;5028503;28;20015;-83
2023/02/04 02:06:00;;;;;;;;;;;;;;;;;;5027831;28;20347;-83
2023/02/04 02:08:25;;;;;;;;;;;;;;;;;;5043407;28;19984;-82
2023/02/04 02:10:51;;;;;;;;;;;;;;;;;;5028887;28;19925;-83
2023/02/04 02:13:18;;;;;;;;;;;;;;;5.32;100.00;67366.25;5027428;28;19917;-83
2023/02/04 02:15:43;;;;;;;;;;;;;;;5.33;100.00;67367.41;5012703;28;19943;-83
2023/02/04 02:18:09;;;;;;;;;;;;;;;5.34;100.00;67368.50;5019375;28;20303;-83
2023/02/04 02:20:35;;;;;;;;;;;;;;;5.33;100.00;67362.13;5012168;28;20424;-83
2023/02/04 02:23:19;;;;;;;;;;;;;;;5.32;100.00;67366.84;5016042;28;22462;-83
2023/02/04 02:25:45;;;;;;;;;;;;;;;5.32;100.00;67366.84;5013214;28;19922;-83
2023/02/04 02:28:12;;;;;;;;;;;;;;;5.33;100.00;67362.13;5025928;28;19948;-83
2023/02/04 02:30:37;;;;;;;;;;;;;;;5.33;100.00;67367.41;5017269;28;19928;-82
2023/02/04 02:33:04;;;;;;;;;;;;;;;5.35;100.00;67369.63;5023988;28;19929;-83
2023/02/04 02:35:29;;;;;;;;;;;;;;;5.33;100.00;67362.13;5002228;28;19925;-82
2023/02/04 02:37:54;;;;;;;;;;;;;;;;;;5013282;28;19921;-82
2023/02/04 02:40:19;;;;;;;;;;;;;;;5.30;100.00;67364.00;5036168;28;20683;-82
2023/02/04 02:42:44;;;;;;;;;;;;;;;;;;5019250;28;20414;-83
2023/02/04 02:45:15;;;;;;;;;;;;;;;5.29;100.00;67363.44;5023374;28;19925;-83
2023/02/04 02:47:40;;;;;;;;;;;;;;;5.31;100.00;67357.22;5028778;28;20306;-83
2023/02/04 02:50:05;;;;;;;;;;;;;;;;;;5010237;28;19921;-83
2023/02/04 02:52:30;;;;;;;;;;;;;;;;;;5005590;28;19921;-83
2023/02/04 02:54:56;;;;;;;;;;;;;;;5.31;100.00;67365.13;5022225;28;20016;-83
2023/02/04 02:57:21;;;;;;;;;;;;;;;;;;5025095;28;19928;-83
2023/02/04 02:59:46;;;;;;;;;;;;;;;5.30;100.00;67358.72;5024022;28;19932;-83
2023/02/04 03:02:12;;;;;;;;;;;;;;;;;;5023808;28;20442;-83
2023/02/04 03:04:40;;;;;;;;;;;;;;;5.30;100.00;67364.00;5019570;28;20410;-83
2023/02/04 03:07:05;;;;;;;;;;;;;;;;;;5025673;28;19971;-83
2023/02/04 03:09:32;;;;;;;;;;;;;;;5.29;100.00;67357.59;5021738;28;19964;-83
2023/02/04 03:11:57;;;;;;;;;;;;;;;;;;5017264;28;19921;-83
2023/02/04 03:14:23;;;;;;;;;;;;;;;;;;5024379;28;19928;-82
2023/02/04 03:16:48;;;;;;;;;;;;;;;5.27;100.00;67355.91;5024014;28;19924;-83
2023/02/04 03:19:14;;;;;;;;;;;;;;;;;;5026752;28;19921;-83
2023/02/04 03:21:39;;;;;;;;;;;;;;;;;;5022723;28;19956;-83
2023/02/04 03:24:04;;;;;;;;;;;;;;;5.28;100.00;67356.47;5025915;28;19929;-81
2023/02/04 03:26:30;;;;;;;;;;;;;;;5.29;100.00;67358.16;5014389;28;20355;-81
2023/02/04 03:28:55;;;;;;;;;;;;;;;5.30;100.00;67359.28;5023085;28;19928;-82
2023/02/04 03:31:20;;;;;;;;;;;;;;;;;;5020849;28;19927;-82
2023/02/04 03:33:46;;;;;;;;;;;;;;;5.30;100.00;67359.28;5021333;28;20372;-83
2023/02/04 03:36:11;;;;;;;;;;;;;;;5.30;100.00;67358.72;5007113;28;20344;-83
2023/02/04 03:38:36;;;;;;;;;;;;;;;5.29;100.00;67357.59;5016235;28;19967;-82
2023/02/04 03:41:02;;;;;;;;;;;;;;;5.29;100.00;67355.50;5019778;28;19975;-83
2023/02/04 03:43:27;;;;;;;;;;;;;;;;;;5017881;28;19929;-80
2023/02/04 03:45:52;;;;;;;;;;;;;;;5.27;100.00;67355.34;5019475;28;19928;-82
2023/02/04 03:48:17;;;;;;;;;;;;;;;5.25;100.00;67353.63;5019109;28;19925;-82
2023/02/04 03:50:43;;;;;;;;;;;;;;;5.25;100.00;67353.06;5022967;28;19922;-81
2023/02/04 03:53:08;;;;;;;;;;;;;;;;;;5021745;28;19976;-83
2023/02/04 03:55:34;;;;;;;;;;;;;;;5.22;100.00;67350.25;5018271;28;20509;-80
2023/02/04 03:58:00;;;;;;;;;;;;;;;;;;5021669;28;20417;-82
2023/02/04 04:00:25;;;;;;;;;;;;;;;5.24;100.00;67351.94;5015970;28;19921;-82
2023/02/04 04:02:50;;;;;;;;;;;;;;;5.23;100.00;67356.09;5000637;28;19929;-83
2023/02/04 04:05:15;;;;;;;;;;;;;;;5.24;100.00;67357.22;5026891;28;19924;-82
2023/02/04 04:07:41;;;;;;;;;;;;;;;5.23;100.00;67356.66;5023394;28;19921;-82
2023/02/04 04:10:06;;;;;;;;;;;;;;;5.23;100.00;67350.81;5024577;28;19921;-83
2023/02/04 04:12:31;;;;;;;;;;;;;;;5.22;100.00;67350.25;5022574;28;19922;-83
2023/02/04 04:14:56;;;;;;;;;;;;;;;;;;5022031;28;20349;-83
2023/02/04 04:17:22;;;;;;;;;;;;;;;5.23;100.00;67356.09;5025133;28;19947;-83
2023/02/04 04:19:48;;;;;;;;;;;;;;;5.23;100.00;67348.16;5023733;28;20011;-82
2023/02/04 04:22:13;;;;;;;;;;;;;;;;;;5005430;28;19925;-82
2023/02/04 04:24:38;;;;;;;;;;;;;;;5.19;100.00;67347.41;5015859;28;20422;-83
2023/02/04 04:27:04;;;;;;;;;;;;;;;5.19;100.00;67352.69;5009920;28;19929;-83
2023/02/04 04:29:29;;;;;;;;;;;;;;;;;;5004695;28;19921;-83
2023/02/04 04:31:54;;;;;;;;;;;;;;;5.17;100.00;67349.88;5024785;28;20513;-82
2023/02/04 04:34:19;;;;;;;;;;;;;;;;;;5021431;28;20012;-83
2023/02/04 04:36:44;;;;;;;;;;;;;;;5.14;100.00;67347.03;5025266;28;20379;-83
2023/02/04 04:39:09;;;;;;;;;;;;;;;;;;5018488;28;19961;-83
2023/02/04 04:41:34;;;;;;;;;;;;;;;;;;5020309;28;19925;-83
2023/02/04 04:44:00;;;;;;;;;;;;;;;5.11;100.00;67337.81;5009426;28;20329;-83
2023/02/04 04:46:25;;;;;;;;;;;;;;;5.08;100.00;67335.00;5018062;28;19932;-82
2023/02/04 04:48:50;;;;;;;;;;;;;;;5.09;100.00;67336.13;5022014;28;20353;-83
2023/02/04 04:51:15;;;;;;;;;;;;;;;5.09;100.00;67332.91;5021400;28;19940;-83
2023/02/04 04:53:41;;;;;;;;;;;;;;;5.09;100.00;67340.84;5024517;28;19925;-82
2023/02/04 04:56:06;;;;;;;;;;;;;;;;;;5020824;28;19979;-82
2023/02/04 04:58:31;;;;;;;;;;;;;;;5.10;100.00;67334.06;5019382;28;19976;-82
2023/02/04 05:00:56;;;;;;;;;;;;;;;5.08;100.00;67334.44;5004733;28;19928;-82
2023/02/04 05:03:22;;;;;;;;;;;;;;;;;;5025721;28;19927;-82
2023/02/04 05:05:47;;;;;;;;;;;;;;;5.05;100.00;67336.31;5017106;28;19921;-83
2023/02/04 05:08:15;;;;;;;;;;;;;;;5.03;100.00;67334.06;5025864;28;20362;-82
2023/02/04 05:10:41;;;;;;;;;;;;;;;5.03;100.00;67329.34;5022992;28;19921;-82
2023/02/04 05:13:06;;;;;;;;;;;;;;;;;;5026911;28;20105;-83
2023/02/04 05:15:31;;;;;;;;;;;;;;;5.02;100.00;67327.66;5023248;28;20473;-83
2023/02/04 05:17:57;;;;;;;;;;;;;;;5.01;100.00;67334.44;5018848;28;20394;-82
2023/02/04 05:20:22;;;;;;;;;;;;;;;;;;5024264;28;20420;-83
2023/02/04 05:22:47;;;;;;;;;;;;;;;4.98;100.00;67323.72;5021976;28;19932;-83
2023/02/04 05:25:15;;;;;;;;;;;;;;;4.97;100.00;67319.94;5016236;28;19930;-83
2023/02/04 05:27:40;;;;;;;;;;;;;;;4.95;100.00;67320.31;5023659;28;19928;-82
2023/02/04 05:30:05;;;;;;;;;;;;;;;;;;5025765;28;19925;-83
2023/02/04 05:32:31;;;;;;;;;;;;;;;4.95;100.00;67317.69;5003440;28;20382;-82
2023/02/04 05:34:56;;;;;;;;;;;;;;;4.96;100.00;67316.19;5006412;28;19925;-82
2023/02/04 05:37:21;;;;;;;;;;;;;;;;;;5026425;28;19928;-82
2023/02/04 05:39:46;;;;;;;;;;;;;;;4.98;100.00;67323.72;5024213;28;19925;-83
2023/02/04 05:42:12;;;;;;;;;;;;;;;4.99;100.00;67330.13;5025950;28;20363;-82
2023/02/04 05:44:37;;;;;;;;;;;;;;;4.98;100.00;67329.00;5021535;28;19921;-82
2023/02/04 05:47:02;;;;;;;;;;;;;;;;;;5015143;28;20020;-82
2023/02/04 05:49:27;;;;;;;;;;;;;;;4.97;100.00;67322.56;5019817;28;20454;-82
2023/02/04 05:51:52;;;;;;;;;;;;;;;4.98;100.00;67323.72;5018066;28;20433;-83
2023/02/04 05:54:19;;;;;;;;;;;;;;;;;;5019929;28;20526;-83
2023/02/04 05:56:45;;;;;;;;;;;;;;;4.98;100.00;67329.00;5017163;28;19933;-82
2023/02/04 05:59:10;;;;;;;;;;;;;;;4.99;100.00;67324.84;5025192;28;19922;-82
2023/02/04 06:01:35;;;;;;;;;;;;;;;;;;5016248;28;20322;-82
2023/02/04 06:04:00;;;;;;;;;;;;;;;4.97;100.00;67319.94;5020166;28;19921;-83
2023/02/04 06:06:26;;;;;;;;;;;;;;;4.99;100.00;67330.13;5024890;28;20008;-83
2023/02/04 06:08:51;;;;;;;;;;;;;;;4.99;100.00;67324.84;5019620;28;19922;-82
2023/02/04 06:11:16;;;;;;;;;;;;;;;;;;5015629;28;21678;-82
2023/02/04 06:13:41;;;;;;;;;;;;;;;;;;5021751;28;19921;-82
2023/02/04 06:16:06;;;;;;;;;;;;;;;4.96;100.00;67326.72;5026139;28;19932;-83
2023/02/04 06:18:32;;;;;;;;;;;;;;;4.96;100.00;67322.00;5003355;28;19929;-83
2023/02/04 06:20:57;;;;;;;;;;;;;;;;;;5021073;28;19921;-83
2023/02/04 06:23:22;;;;;;;;;;;;;;;4.95;100.00;67320.88;5023100;28;19972;-82
2023/02/04 06:25:49;;;;;;;;;;;;;;;4.96;100.00;67322.00;5026495;28;19975;-82
2023/02/04 06:28:14;;;;;;;;;;;;;;;4.95;100.00;67320.31;5028077;28;20016;-82
2023/02/04 06:30:39;;;;;;;;;;;;;;;4.96;100.00;67321.44;5027923;28;20016;-82
2023/02/04 06:33:04;;;;;;;;;;;;;;;;;;5031325;28;20378;-82
2023/02/04 06:35:30;;;;;;;;;;;;;;;4.96;100.00;67326.72;5020784;28;19932;-82
2023/02/04 06:37:55;;;;;;;;;;;;;;;;;;5025228;28;19928;-82
2023/02/04 06:40:20;;;;;;;;;;;;;;;4.96;100.00;67319.38;5028063;28;19921;-82
2023/02/04 06:42:45;;;;;;;;;;;;;;;4.96;100.00;67326.72;5023340;28;20011;-82
2023/02/04 06:45:10;;;;;;;;;;;;;;;;;;5020141;28;19952;-82
2023/02/04 06:47:36;;;;;;;;;;;;;;;4.95;100.00;67320.88;5022866;28;19928;-82
2023/02/04 06:50:01;;;;;;;;;;;;;;;;;;5027469;28;19971;-83
2023/02/04 06:52:26;;;;;;;;;;;;;;;;;;5010754;28;19921;-82
2023/02/04 06:54:51;;;;;;;;;;;;;;;4.91;100.00;67315.81;5024190;28;19963;-83
2023/02/04 06:57:16;;;;;;;;;;;;;;;;;;5022279;28;19972;-82
2023/02/04 06:59:45;;;;;;;;;;;;;;;4.91;100.00;67315.81;5022352;28;19921;-82
2023/02/04 07:02:11;;;;;;;;;;;;;;;4.90;100.00;67312.59;5027245;28;19929;-82
2023/02/04 07:04:36;;;;;;;;;;;;;;;;;;5027928;28;19921;-82
2023/02/04 07:07:02;;;;;;;;;;;;;;;4.87;100.00;67311.84;5021461;28;19928;-82
2023/02/04 07:09:27;;;;;;;;;;;;;;;;;;5029112;28;20446;-82
2023/02/04 07:11:52;;;;;;;;;;;;;;;;;;5024624;28;19996;-82
2023/02/04 07:14:18;;;;;;;;;;;;;;;4.83;100.00;67306.75;5038913;28;19967;-82
2023/02/04 07:16:43;;;;;;;;;;;;;;;;;;5025498;28;19933;-82
2023/02/04 07:19:08;;;;;;;;;;;;;;;;;;5026023;28;19917;-82
2023/02/04 07:21:33;;;;;;;;;;;;;;;4.84;100.00;67313.19;5020918;28;19925;-82
2023/02/04 07:23:58;;;;;;;;;;;;;;;4.83;100.00;67312.59;5025023;28;19976;-82
2023/02/04 07:26:24;;;;;;;;;;;;;;;4.82;100.00;67310.91;5017694;28;19928;-82
2023/02/04 07:28:49;;;;;;;;;;;;;;;4.83;100.00;67306.75;5023334;28;19931;-82
2023/02/04 07:31:14;;;;;;;;;;;;;;;4.83;100.00;67306.75;5028297;28;19928;-83
2023/02/04 07:33:39;;;;;;;;;;;;;;;;;;5027317;28;20390;-82
2023/02/04 07:36:05;;;;;;;;;;;;;;;;;;5025164;28;20015;-82
2023/02/04 07:38:30;;;;;;;;;;;;;;;4.84;100.00;67313.75;5025840;28;20295;-83
2023/02/04 07:40:55;;;;;;;;;;;;;;;;;;5024280;28;20390;-82
2023/02/04 07:43:20;;;;;;;;;;;;;;;;;;5017809;28;19929;-82
2023/02/04 07:45:45;;;;;;;;;;;;;;;;;;5014570;28;20012;-82
2023/02/04 07:48:10;;;;;;;;;;;;;;;;;;5021814;28;19922;-82
2023/02/04 07:50:36;;;;;;;;;;;;;;;4.86;100.00;67315.41;5039917;28;19925;-82
2023/02/04 07:53:01;;;;;;;;;;;;;;;4.86;100.00;67310.72;5022196;28;20406;-82
2023/02/04 07:55:27;;;;;;;;;;;;;;;4.89;100.00;67318.81;5027942;28;19951;-82
2023/02/04 07:57:52;;;;;;;;;;;;;;;4.87;100.00;67317.13;5020488;28;19928;-82
2023/02/04 08:00:17;;;;;;;;;;;;;;;;;;5025560;28;19932;-82
2023/02/04 08:02:43;;;;;;;;;;;;;;;;;;5025273;28;19949;-82
2023/02/04 08:05:08;;;;;;;;;;;;;;;;;;5023626;28;20379;-82
2023/02/04 08:07:33;;;;;;;;;;;;;;;4.89;100.00;67319.38;5021542;28;19994;-82
2023/02/04 08:09:58;;;;;;;;;;;;;;;;;;5025584;28;20496;-83
2023/02/04 08:12:23;;;;;;;;;;;;;;;4.93;100.00;67318.06;5008064;28;19921;-83
2023/02/04 08:14:48;;;;;;;;;;;;;;;4.94;100.00;67324.47;5021540;28;19925;-83
2023/02/04 08:17:14;;;;;;;;;;;;;;;;;;5024593;28;20528;-82
2023/02/04 08:19:39;;;;;;;;;;;;;;;4.99;100.00;67324.84;5025646;28;19973;-82
2023/02/04 08:22:04;;;;;;;;;;;;;;;5.01;100.00;67326.53;5021304;28;19980;-82
2023/02/04 08:24:30;;;;;;;;;;;;;;;;;;5007092;28;20020;-83
2023/02/04 08:26:55;;;;;;;;;;;;;;;5.04;100.00;67327.84;5019058;28;20598;-82
2023/02/04 08:29:20;;;;;;;;;;;;;;;;;;5018020;28;19950;-82
2023/02/04 08:31:46;;;;;;;;;;;;;;;5.08;100.00;67331.78;5022312;28;20319;-82
2023/02/04 08:34:11;;;;;;;;;;;;;;;;;;5005127;28;20023;-82
2023/02/04 08:36:36;;;;;;;;;;;;;;;5.11;100.00;67338.38;5025985;28;19925;-82
2023/02/04 08:39:02;;;;;;;;;;;;;;;;;;5019923;28;20425;-82
2023/02/04 08:41:27;;;;;;;;;;;;;;;;;;5020318;28;19925;-81
2023/02/04 08:43:52;;;;;;;;;;;;;;;;;;5015242;28;19924;-81
2023/02/04 08:46:17;;;;;;;;;;;;;;;;;;5024256;28;19926;-81
2023/02/04 08:48:44;;;;;;;;;;;;;;;5.17;100.00;67345.16;5022761;28;20300;-82
2023/02/04 08:51:10;;;;;;;;;;;;;;;5.18;100.00;67346.31;5023854;28;19925;-81
2023/02/04 08:53:36;;;;;;;;;;;;;;;5.21;100.00;67354.41;5022330;28;19921;-82
2023/02/04 08:56:01;;;;;;;;;;;;;;;;;;5023577;28;20678;-82
2023/02/04 08:58:26;;;;;;;;;;;;;;;5.25;100.00;67353.63;5022119;28;19962;-82
2023/02/04 09:00:52;;;;;;;;;;;;;;;;;;5019529;28;19968;-82
2023/02/04 09:03:17;;;;;;;;;;;;;;;;;;5023054;28;19921;-82
2023/02/04 09:05:42;;;;;;;;;;;;;;;5.32;100.00;67360.97;5008398;28;19921;-82
2023/02/04 09:08:07;;;;;;;;;;;;;;;5.38;100.00;67373.59;5014571;28;19921;-82
2023/02/04 09:10:32;;;;;;;;;;;;;;;5.43;100.00;67373.97;4999367;28;19929;-82
2023/02/04 09:12:58;;;;;;;;;;;;;;;5.47;100.00;67383.22;5021430;28;19921;-82
2023/02/04 09:15:23;;;;;;;;;;;;;;;5.48;100.00;67383.78;5022885;28;19929;-82
2023/02/04 09:17:48;;;;;;;;;;;;;;;;;;5019047;28;19921;-82
2023/02/04 09:20:13;;;;;;;;;;;;;;;5.50;100.00;67380.75;5024442;28;20789;-82
2023/02/04 09:22:39;;;;;;;;;;;;;;;5.58;100.00;67390.38;5014417;28;19965;-83
2023/02/04 09:25:04;;;;;;;;;;;;;;;5.58;100.00;67387.13;5024940;28;19921;-83
2023/02/04 09:27:29;;;;;;;;;;;;;;;5.60;100.00;67392.59;5025211;28;19925;-82
2023/02/04 09:29:55;;;;;;;;;;;;;;;;;;5009536;28;19928;-82
2023/02/04 09:32:20;;;;;;;;;;;;;;;5.73;100.00;67406.19;5023369;28;19921;-82
2023/02/04 09:34:46;;;;;;;;;;;;;;;5.75;100.00;67409.00;5027989;28;19929;-82
2023/02/04 09:37:11;;;;;;;;;;;;;;;5.75;100.00;67413.72;5024958;28;19972;-82
2023/02/04 09:39:36;;;;;;;;;;;;;;;;;;5024121;28;19922;-82
2023/02/04 09:42:01;;;;;;;;;;;;;;;5.84;100.00;67423.88;5030072;28;19921;-82
2023/02/04 09:44:27;;;;;;;;;;;;;;;5.83;100.00;67422.75;5024577;28;19925;-82
2023/02/04 09:46:54;;;;;;;;;;;;;;;5.85;100.00;67419.75;5023108;28;19928;-82
2023/02/04 09:49:20;;;;;;;;;;;;;;;5.86;100.00;67420.88;5041763;28;19921;-82
2023/02/04 09:51:45;;;;;;;;;;;;;;;5.94;100.00;67429.94;5020306;28;19922;-82
2023/02/04 09:54:12;;;;;;;;;;;;;;;6.00;100.00;67436.72;5031103;28;19929;-82
2023/02/04 09:56:37;;;;;;;;;;;;;;;6.03;100.00;67440.09;5024792;28;19929;-82
2023/02/04 09:59:02;;;;;;;;;;;;;;;;;;5025548;28;19925;-82
2023/02/04 10:01:28;;;;;;;;;;;;;;;6.17;100.00;67454.81;5029867;28;19927;-82
2023/02/04 10:03:55;;;;;;;;;;;;;;;6.22;100.00;67460.47;5023056;28;19983;-82
2023/02/04 10:06:20;;;;;;;;;;;;;;;;;;5025225;28;19968;-82
2023/02/04 10:08:47;;;;;;;;;;;;;;;6.18;100.00;67455.94;5026590;28;19921;-82
2023/02/04 10:11:13;;;;;;;;;;;;;;;6.16;100.00;67454.25;5030154;28;20488;-82
2023/02/04 10:13:40;;;;;;;;;;;;;;;;;;5019726;28;19975;-82
2023/02/04 10:16:12;;;;;;;;;;;;;;;6.16;100.00;67461.59;5019785;28;19932;-82
2023/02/04 10:18:37;;;;;;;;;;;;;;;6.19;100.00;67462.34;5018663;28;19944;-82
2023/02/04 10:21:12;;;;;;;;;;;;;;;6.17;100.00;67460.66;5024695;28;20996;-82
2023/02/04 10:23:38;;;;;;;;;;;;;;;6.25;100.00;67463.84;5026146;28;19933;-82
2023/02/04 10:26:03;;;;;;;;;;;;;;;6.22;100.00;67465.75;5024733;28;20415;-82
2023/02/04 10:28:33;;;;;;;;;;;;;;;6.33;100.00;67478.19;5021789;28;19922;-82
2023/02/04 10:30:58;;;;;;;;;;;;;;;6.42;100.00;67482.50;5021480;28;20313;-82
2023/02/04 10:33:26;;;;;;;;;;;;;;;;;;5025798;28;20015;-82
2023/02/04 10:35:52;;;;;;;;;;;;;;;6.48;100.00;67495.13;5027700;28;19932;-82
2023/02/04 10:38:18;;;;;;;;;;;;;;;6.54;100.00;67496.63;5043418;28;19928;-82
2023/02/04 10:40:44;;;;;;;;;;;;;;;;;;5023109;28;19926;-82
2023/02/04 10:43:17;;;;;;;;;;;;;;;6.46;100.00;67487.59;5025337;28;19979;-82
2023/02/04 10:45:44;;;;;;;;;;;;;;;6.45;100.00;67486.47;5025531;28;20326;-82
2023/02/04 10:48:17;;;;;;;;;;;;;;;6.54;100.00;67496.63;5028216;28;19925;-82
2023/02/04 10:50:42;;;;;;;;;;;;;;;6.59;100.00;67498.50;5025711;28;20021;-82
2023/02/04 10:55:52;;;;;;;;;;;;;;;6.60;100.00;67499.66;5012920;28;20410;-82
2023/02/04 10:58:26;;;;;;;;;;;;;;;6.63;100.00;67506.25;5006081;28;20036;-82
2023/02/04 11:00:51;;;;;;;;;;;;;;;6.64;100.00;67507.38;5020975;28;19921;-82
2023/02/04 11:03:24;;;;;;;;;;;;;;;6.72;100.00;67521.16;5024186;28;20041;-82
2023/02/04 11:05:49;;;;;;;;;;;;;;;;;;5020094;28;19929;-82
2023/02/04 11:08:14;;;;;;;;;;;;;;;;;;5022713;28;19936;-82
2023/02/04 11:10:39;;;;;;;;;;;;;;;;;;5020058;28;19932;-82
2023/02/04 11:13:05;;;;;;;;;;;;;;;6.82;100.00;67532.47;5019876;28;20001;-82
2023/02/04 11:15:38;;;;;;;;;;;;;;;6.84;100.00;67534.72;5021995;28;20018;-82
2023/02/04 11:18:05;;;;;;;;;;;;;;;6.75;100.00;67519.25;5003517;28;19929;-82
2023/02/04 11:20:30;;;;;;;;;;;;;;;;;;5001021;28;19921;-82
2023/02/04 11:22:55;;;;;;;;;;;;;;;;;;5022259;28;20623;-82
2023/02/04 11:25:20;;;;;;;;;;;;;;;;;;5019603;28;20542;-82
2023/02/04 11:27:45;;;;;;;;;;;;;;;;;;5001870;28;19960;-82
2023/02/04 11:30:19;;;;;;;;;;;;;;;6.93;100.00;67539.63;5021422;28;20582;-82
2023/02/04 11:32:44;;;;;;;;;;;;;;;;;;5020229;28;22261;-82
2023/02/04 11:35:09;;;;;;;;;;;;;;;6.92;100.00;67543.78;5019735;28;19929;-82
2023/02/04 11:37:35;;;;;;;;;;;;;;;6.96;100.00;67542.44;5016679;28;19932;-82
2023/02/04 11:40:00;;;;;;;;;;;;;;;6.94;100.00;67534.91;5022025;28;19921;-82
2023/02/04 11:42:30;;;;;;;;;;;;;;;6.94;100.00;67540.19;5021337;28;20450;-82
2023/02/04 11:44:55;;;;;;;;;;;;;;;;;;5021647;28;19921;-82
2023/02/04 11:47:20;;;;;;;;;;;;;;;;;;5022696;28;19921;-82
2023/02/04 11:49:51;;;;;;;;;;;;;;;7.05;100.00;67557.34;5019598;28;19960;-82
2023/02/04 11:52:16;;;;;;;;;;;;;;;;;;5021680;28;19926;-82
2023/02/04 11:54:41;;;;;;;;;;;;;;;;;;5019669;28;19951;-82
2023/02/04 11:57:09;;;;;;;;;;;;;;;7.23;100.00;67572.44;5022468;28;19936;-82
2023/02/04 11:59:35;;;;;;;;;;;;;;;;;;5021320;28;19925;-82
2023/02/04 12:02:00;;;;;;;;;;;;;;;;;;5021552;28;19945;-82
2023/02/04 12:04:27;;;;;;;;;;;;;;;7.59;100.00;67612.03;5006386;28;19936;-82
2023/02/04 12:07:02;;;;;;;;;;;;;;;7.58;100.00;67610.91;5018671;28;19920;-82
2023/02/04 12:09:29;;;;;;;;;;;;;;;7.67;100.00;67621.66;5038766;28;19944;-82
2023/02/04 12:11:54;;;;;;;;;;;;;;;;;;5005430;28;19921;-82
2023/02/04 12:14:20;;;;;;;;;;;;;;;7.55;100.00;67612.81;5022492;28;19936;-82
2023/02/04 12:16:46;;;;;;;;;;;;;;;7.60;100.00;67610.53;5023378;28;19929;-82
2023/02/04 12:19:14;;;;;;;;;;;;;;;7.63;100.00;67616.56;5022881;28;19921;-82
2023/02/04 12:21:39;;;;;;;;;;;;;;;;;;5022882;28;19924;-82
2023/02/04 12:24:04;;;;;;;;;;;;;;;7.58;100.00;67616.75;5022001;28;19925;-82
2023/02/04 12:26:29;;;;;;;;;;;;;;;;;;5021879;28;19960;-82
2023/02/04 12:28:55;;;;;;;;;;;;;;;7.94;100.00;67651.09;5025372;28;19917;-82
2023/02/04 12:31:20;;;;;;;;;;;;;;;;;;5022071;28;20342;-82
2023/02/04 12:33:45;;;;;;;;;;;;;;;;;;5022025;28;19917;-82
2023/02/04 12:36:10;;;;;;;;;;;;;;;;;;5017588;28;19922;-82
2023/02/04 12:38:35;;;;;;;;;;;;;;;8.00;100.00;67657.31;5020445;28;19924;-82
2023/02/04 12:41:01;;;;;;;;;;;;;;;8.11;100.00;67667.69;5022046;28;19925;-82
2023/02/04 12:43:26;;;;;;;;;;;;;;;;;;5021434;28;20347;-82
2023/02/04 12:45:51;;;;;;;;;;;;;;;8.05;100.00;67660.31;5003912;28;20282;-82
2023/02/04 12:48:16;;;;;;;;;;;;;;;7.96;100.00;67652.78;5024222;28;19929;-82
2023/02/04 12:50:41;;;;;;;;;;;;;;;7.80;100.00;67632.59;5020647;28;19917;-82
2023/02/04 12:53:07;;;;;;;;;;;;;;;7.72;100.00;67626.75;5023936;28;19952;-82
2023/02/04 12:55:32;;;;;;;;;;;;;;;7.93;100.00;67649.41;5016473;28;20391;-82
2023/02/04 12:57:58;;;;;;;;;;;;;;;7.97;100.00;67659.78;5023298;28;19917;-82
2023/02/04 13:00:23;;;;;;;;;;;;;;;8.16;100.00;67674.88;5023646;28;19972;-82
2023/02/04 13:02:48;;;;;;;;;;;;;;;8.08;100.00;67666.38;5022838;28;19987;-82
2023/02/04 13:05:14;;;;;;;;;;;;;;;8.19;100.00;67678.25;5026507;28;20370;-82
2023/02/04 13:07:39;;;;;;;;;;;;;;;;;;5018591;28;19925;-84
2023/02/04 13:10:05;;;;;;;;;;;;;;;8.71;100.00;67736.63;5022008;28;19921;-82
2023/02/04 13:12:30;;;;;;;;;;;;;;;8.81;100.00;67747.97;5001205;28;19917;-82
2023/02/04 13:14:56;;;;;;;;;;;;;;;8.83;100.00;67754.94;5021598;28;19917;-84
2023/02/04 13:17:21;;;;;;;;;;;;;;;9.11;100.00;67780.25;5018108;28;20298;-82
2023/02/04 13:19:46;;;;;;;;;;;;;;;9.32;100.00;67804.06;5016334;28;19951;-83
2023/02/04 13:22:11;;;;;;;;;;;;;;;9.07;100.00;67773.63;5018538;28;19918;-83
2023/02/04 13:24:37;;;;;;;;;;;;;;;9.23;100.00;67794.41;5018285;28;19918;-81
2023/02/04 13:27:02;;;;;;;;;;;;;;;9.16;100.00;67783.25;5019857;28;20564;-83
2023/02/04 13:29:27;;;;;;;;;;;;;;;9.02;100.00;67767.97;5018369;28;20319;-83
2023/02/04 13:31:52;;;;;;;;;;;;;;;;;;5019044;28;19986;-82
2023/02/04 13:34:18;;;;;;;;;;;;;;;8.87;100.00;67754.19;5017754;28;19921;-82
2023/02/04 13:36:43;;;;;;;;;;;;;;;;;;5017573;28;19953;-82
2023/02/04 13:39:08;;;;;;;;;;;;;;;;;;5018441;28;19932;-84
2023/02/04 13:41:33;;;;;;;;;;;;;;;;;;5019712;28;20048;-85
2023/02/04 13:43:58;;;;;;;;;;;;;;;9.04;100.00;67770.78;5020719;28;19924;-79
2023/02/04 13:46:24;;;;;;;;;;;;;;;9.03;100.00;67772.31;5026821;28;19917;-82
2023/02/04 13:48:49;;;;;;;;;;;;;;;9.29;100.00;67797.44;5009176;28;20350;-81
2023/02/04 13:51:15;;;;;;;;;;;;;;;9.02;100.00;67770.63;5027600;28;19945;-81
2023/02/04 13:53:40;;;;;;;;;;;;;;;8.99;100.00;67767.22;5027862;28;20365;-82
2023/02/04 13:56:06;;;;;;;;;;;;;;;8.86;100.00;67749.81;5027048;28;19935;-82